This is the latest recevied weather packets stored in our database for station/object DK0KTL-4. If no packets are shown the sender has not sent any weather packets the latest 10 day(s).
| Time | Temp. | Humidity | Pressure | Rain* | Wind** | Luminosity | Snow |
|---|---|---|---|---|---|---|---|
| 1777995666 | 20.56° C | 64% | 1005.4 hPa | 0 mm | - | - | - |
| 1777994164 | 20.56° C | 65% | 1005.6 hPa | 0 mm | - | - | - |
| 1777993864 | 20.56° C | 67% | 1005.7 hPa | 0 mm | - | - | - |
| 1777993564 | 20.56° C | 67% | 1005.7 hPa | 0 mm | - | - | - |
| 1777992963 | 20° C | 71% | 1005.9 hPa | 0 mm | - | - | - |
| 1777991762 | 19.44° C | 69% | 1006.1 hPa | 0 mm | - | - | - |
| 1777991462 | 19.44° C | 70% | 1006.2 hPa | 0 mm | - | - | - |
| 1777989660 | 19.44° C | 69% | 1006.3 hPa | 0 mm | - | - | - |
| 1777989360 | 19.44° C | 69% | 1006.4 hPa | 0 mm | - | - | - |
| 1777988759 | 19.44° C | 68% | 1006.6 hPa | 0 mm | - | - | - |
| 1777988459 | 19.44° C | 69% | 1006.5 hPa | 0 mm | - | - | - |
| 1777987858 | 20° C | 65% | 1006.5 hPa | 0 mm | - | - | - |
| 1777987558 | 20° C | 68% | 1006.6 hPa | 0 mm | - | - | - |
| 1777986357 | 20.56° C | 66% | 1006.8 hPa | 0 mm | - | - | - |
| 1777984555 | 21.67° C | 65% | 1007.1 hPa | 0 mm | - | - | - |
| 1777983954 | 21.67° C | 64% | 1007.2 hPa | 0 mm | - | - | - |
| 1777983054 | 21.11° C | 64% | 1007.2 hPa | 0 mm | - | - | - |
| 1777982153 | 20.56° C | 69% | 1007.3 hPa | 0 mm | - | - | - |
| 1777981552 | 20.56° C | 69% | 1007.4 hPa | 0 mm | - | - | - |
| 1777980952 | 20° C | 74% | 1007.4 hPa | 0 mm | - | - | - |
| 1777979450 | 18.89° C | 77% | 1007.4 hPa | 0 mm | - | - | - |
| 1777978850 | 18.33° C | 79% | 1007.7 hPa | 0 mm | - | - | - |
| 1777978249 | 17.22° C | 83% | 1007.7 hPa | 0 mm | - | - | - |
| 1777977648 | 17.22° C | 83% | 1007.7 hPa | 0 mm | - | - | - |
| 1777976147 | 15.56° C | 89% | 1008.3 hPa | 0 mm | - | - | - |
* Rain latest hour (hover to see other rain measurements)
** Current wind speed in m/s (hover to see current wind gust speed)